Time;durP1;ratioP1;P1;durP2;ratioP2;P2;SDS_P1;SDS_P2;PMS_P1;PMS_P2;Temp;Humidity;BMP_temperature;BMP_pressure;BME280_temperature;BME280_humidity;BME280_pressure;Samples;Min_cycle;Max_cycle;Signal;HPM_P1;HPM_P2
2023/10/14 00:01:30;;;;;;;0.50;0.50;;;;;;;13.21;100.00;100231.88;10579372;28;20405;-74
2023/10/14 00:06:34;;;;;;;0.50;0.50;;;;;;;13.11;100.00;100237.84;10578341;28;20494;-73
2023/10/14 00:11:43;;;;;;;1.13;1.13;;;;;;;13.09;100.00;100248.13;10577563;28;20043;-73
2023/10/14 00:16:49;;;;;;;0.50;0.50;;;;;;;12.99;100.00;100258.72;10578392;28;20036;-73
2023/10/14 00:21:50;;;;;;;0.57;0.57;;;;;;;12.74;100.00;100267.81;10578321;28;20136;-74
2023/10/14 00:26:50;;;;;;;0.80;0.80;;;;;;;12.66;100.00;100297.97;10577634;28;20036;-73
2023/10/14 00:31:51;;;;;;;0.50;0.50;;;;;;;12.49;100.00;100314.03;10579231;28;20051;-72
2023/10/14 00:36:55;;;;;;;0.70;0.70;;;;;;;12.43;100.00;100341.25;10584376;28;20107;-72
2023/10/14 00:41:58;;;;;;;3.70;2.00;;;;;;;12.30;100.00;100353.91;10585392;28;20036;-72
2023/10/14 00:46:59;;;;;;;0.90;0.90;;;;;;;12.18;100.00;100355.66;10584712;28;20035;-73
2023/10/14 00:52:01;;;;;;;1.45;1.35;;;;;;;11.98;100.00;100366.69;10585384;28;20125;-72
2023/10/14 00:57:10;;;;;;;0.88;0.85;;;;;;;11.91;100.00;100371.34;10567978;28;20109;-73
2023/10/14 01:02:10;;;;;;;0.60;0.60;;;;;;;11.81;100.00;100393.50;10584622;28;20032;-73
2023/10/14 01:07:14;;;;;;;0.50;0.50;;;;;;;11.71;100.00;100405.84;10583499;28;20446;-73
2023/10/14 01:12:20;;;;;;;0.63;0.63;;;;;;;11.58;100.00;100417.59;10585731;28;20031;-73
2023/10/14 01:17:29;;;;;;;0.40;0.40;;;;;;;11.46;100.00;100430.19;10584638;28;20051;-72
2023/10/14 01:22:30;;;;;;;1.65;1.65;;;;;;;11.35;100.00;100435.19;10584937;28;20471;-72
2023/10/14 01:27:34;;;;;;;1.25;1.25;;;;;;;11.31;100.00;100446.69;10584452;28;20034;-72
2023/10/14 01:32:49;;;;;;;0.50;0.50;;;;;;;11.23;100.00;100455.91;10583872;28;20088;-73
2023/10/14 01:37:54;;;;;;;0.50;0.50;;;;;;;11.28;100.00;100458.78;10586381;27;20091;-73
2023/10/14 01:42:58;;;;;;;0.45;0.45;;;;;;;11.38;100.00;100477.31;10566235;28;20028;-72
2023/10/14 01:53:18;;;;;;;0.73;0.70;;;;;;;11.46;100.00;100481.69;10583790;28;20378;-72
2023/10/14 01:58:22;;;;;;;0.57;0.57;;;;;;;11.37;100.00;100498.19;10567192;28;20032;-72
2023/10/14 02:03:23;;;;;;;0.82;0.82;;;;;;;11.33;100.00;100510.50;10581979;28;20435;-71
2023/10/14 02:08:23;;;;;;;1.13;1.13;;;;;;;11.20;100.00;100521.38;10581006;28;20135;-71
2023/10/14 02:13:24;;;;;;;3.60;2.95;;;;;;;11.12;100.00;100527.84;10582043;28;20040;-72
2023/10/14 02:18:24;;;;;;;0.40;0.40;;;;;;;11.05;100.00;100540.56;10585846;28;20038;-71
2023/10/14 02:23:29;;;;;;;0.40;0.40;;;;;;;11.02;100.00;100545.56;10583926;28;20403;-72
2023/10/14 02:28:40;;;;;;;0.50;0.50;;;;;;;11.06;100.00;100563.06;10582359;28;20463;-71
2023/10/14 02:33:40;;;;;;;0.70;0.70;;;;;;;11.03;100.00;100583.28;10580581;28;20058;-71
2023/10/14 02:38:52;;;;;;;0.93;0.93;;;;;;;11.07;100.00;100575.56;10581804;28;20047;-70
2023/10/14 02:44:19;;;;;;;3.25;2.25;;;;;;;11.17;100.00;100600.41;10582130;28;20035;-72
2023/10/14 02:49:24;;;;;;;0.50;0.50;;;;;;;11.11;100.00;100609.34;10580470;28;20039;-71
2023/10/14 02:54:44;;;;;;;1.13;1.13;;;;;;;11.29;100.00;100628.50;10580831;28;20450;-71
2023/10/14 02:59:44;;;;;;;0.40;0.40;;;;;;;11.47;100.00;100637.91;10579465;28;20470;-71
2023/10/14 03:15:20;;;;;;;0.47;0.47;;;;;;;11.43;100.00;100671.91;10579661;28;20032;-72
2023/10/14 03:25:27;;;;;;;0.50;0.50;;;;;;;11.67;100.00;100687.53;10578339;28;20043;-73
2023/10/14 03:30:28;;;;;;;1.77;1.77;;;;;;;11.53;100.00;100699.44;10579015;28;20459;-70
2023/10/14 03:35:32;;;;;;;0.50;0.50;;;;;;;11.65;100.00;100708.63;10596251;27;20062;-73
2023/10/14 03:45:53;;;;;;;2.67;2.53;;;;;;;11.70;100.00;100716.94;10581052;28;20039;-72
2023/10/14 03:51:02;;;;;;;0.90;0.90;;;;;;;11.82;100.00;100731.56;10578725;28;20482;-72
2023/10/14 03:56:06;;;;;;;1.10;1.10;;;;;;;11.83;100.00;100738.63;10577589;28;20447;-71
2023/10/14 04:01:07;;;;;;;0.50;0.50;;;;;;;11.91;100.00;100737.63;10579474;28;20122;-72
2023/10/14 04:06:14;;;;;;;0.50;0.50;;;;;;;11.79;100.00;100755.56;10562547;28;20043;-72
2023/10/14 04:11:35;;;;;;;0.50;0.50;;;;;;;11.74;100.00;100764.34;10586099;28;20020;-73
2023/10/14 04:21:59;;;;;;;0.55;0.55;;;;;;;11.88;100.00;100796.91;10588255;28;20525;-71
2023/10/14 04:27:22;;;;;;;0.50;0.50;;;;;;;11.63;100.00;100798.31;10586522;28;20067;-73
2023/10/14 04:32:27;;;;;;;0.43;0.43;;;;;;;11.49;100.00;100812.09;10585750;28;20083;-73
2023/10/14 04:37:50;;;;;;;6.88;1.63;;;;;;;11.36;100.00;100824.56;10588907;28;20066;-73
2023/10/14 04:42:48;;;;;;;18.30;4.88;;;;;;;11.32;100.00;100831.41;10586251;28;20061;-73
2023/10/14 04:47:48;;;;;;;0.60;0.60;;;;;;;11.23;100.00;100835.38;10601897;27;20176;-73
2023/10/14 04:52:49;;;;;;;0.60;0.60;;;;;;;11.10;100.00;100836.16;10586000;28;20112;-73
2023/10/14 05:03:12;;;;;;;10.40;6.20;;;;;;;11.30;100.00;100855.22;10585376;28;20534;-73
2023/10/14 05:08:16;;;;;;;13.77;4.03;;;;;;;11.45;100.00;100868.56;10586132;28;20039;-71
2023/10/14 05:13:25;;;;;;;17.00;4.35;;;;;;;11.42;100.00;100877.13;10601148;27;20044;-73
2023/10/14 05:18:28;;;;;;;10.23;4.03;;;;;;;11.32;100.00;100882.09;10567082;28;20535;-72
2023/10/14 05:23:32;;;;;;;24.35;3.78;;;;;;;11.28;100.00;100888.97;10584648;28;20036;-73
2023/10/14 05:28:36;;;;;;;14.48;3.75;;;;;;;11.15;100.00;100897.88;10585479;28;20039;-72
2023/10/14 05:33:36;;;;;;;11.07;3.35;;;;;;;11.07;100.00;100906.16;10584547;28;20043;-73
2023/10/14 05:38:39;;;;;;;17.17;4.93;;;;;;;11.31;100.00;100912.97;10583311;27;20050;-74
2023/10/14 05:43:39;;;;;;;15.88;5.20;;;;;;;11.43;100.00;100924.09;10583120;28;20126;-73
2023/10/14 05:48:40;;;;;;;10.85;4.53;;;;;;;11.39;100.00;100929.91;10583421;28;20031;-73
2023/10/14 05:53:42;;;;;;;12.40;3.33;;;;;;;11.43;100.00;100934.94;10582884;28;20065;-73
2023/10/14 05:58:42;;;;;;;20.08;5.82;;;;;;;11.56;100.00;100945.81;10584021;28;20031;-73
2023/10/14 06:03:43;;;;;;;18.17;4.63;;;;;;;11.70;100.00;100958.38;10583889;28;20067;-73
2023/10/14 06:08:46;;;;;;;23.42;7.30;;;;;;;11.75;100.00;100952.34;10582587;28;20031;-72
2023/10/14 06:13:47;;;;;;;21.25;4.47;;;;;;;11.68;100.00;100979.47;10583422;28;20052;-72
2023/10/14 06:18:47;;;;;;;8.98;4.07;;;;;;;11.72;100.00;100998.88;10583240;28;20527;-73
2023/10/14 06:23:48;;;;;;;10.05;3.97;;;;;;;11.58;100.00;101001.53;10580821;28;20063;-72
2023/10/14 06:28:49;;;;;;;9.73;4.28;;;;;;;11.52;100.00;101012.31;10581948;28;20032;-73
2023/10/14 06:33:54;;;;;;;7.60;4.07;;;;;;;11.73;100.00;101012.22;10580234;28;20138;-73
2023/10/14 06:38:59;;;;;;;28.88;6.18;;;;;;;11.89;100.00;101011.06;10581488;28;20047;-73
2023/10/14 06:43:59;;;;;;;24.33;5.85;;;;;;;12.05;100.00;101034.28;10580946;28;20039;-73
2023/10/14 06:48:59;;;;;;;8.80;3.67;;;;;;;12.17;100.00;101035.38;10580829;28;20035;-73
2023/10/14 06:54:00;;;;;;;11.30;4.00;;;;;;;12.18;100.00;101058.75;10580855;28;20085;-74
2023/10/14 06:59:00;;;;;;;7.90;3.30;;;;;;;11.96;100.00;101071.63;10581256;28;20105;-73
2023/10/14 07:04:01;;;;;;;11.90;4.28;;;;;;;11.98;100.00;101077.69;10596495;27;20042;-73
2023/10/14 07:09:07;;;;;;;15.55;3.63;;;;;;;12.94;100.00;101085.66;10579639;28;20036;-72
2023/10/14 07:14:08;;;;;;;14.43;2.47;;;;;;;13.90;100.00;101097.88;10581274;28;20500;-73
2023/10/14 07:19:08;;;;;;;10.65;4.43;;;;;;;14.51;100.00;101104.75;10580406;28;20040;-72
2023/10/14 07:24:09;;;;;;;9.55;3.80;;;;;;;15.04;100.00;101105.22;10596346;27;20045;-70
2023/10/14 07:29:10;;;;;;;9.82;4.30;;;;;;;15.41;100.00;101115.41;10595258;27;20032;-72
2023/10/14 07:34:10;;;;;;;9.70;3.92;;;;;;;15.62;100.00;101131.38;10580125;28;20074;-73
2023/10/14 07:39:27;;;;;;;6.55;3.35;;;;;;;16.10;100.00;101135.28;10577737;28;20035;-73
2023/10/14 07:44:28;;;;;;;;;;;;;;;16.71;100.00;101137.00;10579986;28;20036;-73
2023/10/14 07:49:28;;;;;;;11.98;3.17;;;;;;;16.93;100.00;101153.75;10579606;28;19915;-73
2023/10/14 07:54:29;;;;;;;2.70;2.33;;;;;;;17.43;100.00;101159.69;10578857;28;20046;-73
2023/10/14 07:59:34;;;;;;;4.88;3.03;;;;;;;17.53;100.00;101175.53;10580810;28;20061;-73
2023/10/14 08:04:34;;;;;;;10.05;3.45;;;;;;;16.20;100.00;101168.38;10578882;28;20054;-74
2023/10/14 08:09:39;;;;;;;9.68;4.13;;;;;;;16.36;100.00;101184.16;10560102;28;20043;-72
2023/10/14 08:14:40;;;;;;;7.75;3.13;;;;;;;16.66;100.00;101200.59;10578723;28;20027;-73
2023/10/14 08:19:41;;;;;;;3.60;3.22;;;;;;;17.38;100.00;101203.34;10578512;28;20036;-72
2023/10/14 08:24:41;;;;;;;4.57;3.25;;;;;;;18.16;100.00;101208.78;10595214;28;20100;-74
2023/10/14 08:29:41;;;;;;;3.58;3.15;;;;;;;18.10;100.00;101213.31;10594573;28;20056;-73
2023/10/14 08:34:42;;;;;;;8.73;3.55;;;;;;;18.79;100.00;101213.41;10579462;28;20063;-73
2023/10/14 08:39:44;;;;;;;5.63;3.40;;;;;;;18.68;100.00;101227.97;10579145;28;20427;-72
2023/10/14 08:44:44;;;;;;;6.10;2.60;;;;;;;18.99;100.00;101234.94;10577959;28;20040;-73
2023/10/14 08:49:45;;;;;;;8.65;4.03;;;;;;;16.94;100.00;101241.09;10576452;28;20031;-73
2023/10/14 08:54:46;;;;;;;5.43;3.53;;;;;;;16.95;100.00;101247.38;10578407;28;20454;-75
2023/10/14 08:59:46;;;;;;;10.45;3.20;;;;;;;18.16;100.00;101255.38;10583847;28;20039;-73
2023/10/14 09:04:47;;;;;;;5.85;3.38;;;;;;;18.06;100.00;101259.56;10585232;28;20092;-72
2023/10/14 09:09:51;;;;;;;8.88;3.35;;;;;;;18.39;100.00;101268.22;10586585;28;20054;-72
2023/10/14 09:14:53;;;;;;;5.25;2.85;;;;;;;18.12;100.00;101269.56;10584081;28;20427;-75
2023/10/14 09:19:53;;;;;;;10.80;3.38;;;;;;;18.85;100.00;101271.97;10583565;28;20122;-72
2023/10/14 09:24:58;;;;;;;17.13;2.15;;;;;;;17.42;100.00;101300.41;10584979;28;20024;-71
2023/10/14 09:29:59;;;;;;;3.92;2.97;;;;;;;18.58;100.00;101289.78;10583035;28;20096;-67
2023/10/14 09:34:59;;;;;;;5.32;2.78;;;;;;;19.28;100.00;101294.25;10583247;28;20060;-70
2023/10/14 09:40:05;;;;;;;9.25;3.17;;;;;;;20.14;100.00;101301.50;10583029;27;20031;-70
2023/10/14 09:45:10;;;;;;;5.97;2.42;;;;;;;18.99;100.00;101314.53;10582267;28;20039;-67
2023/10/14 09:50:13;;;;;;;4.03;2.10;;;;;;;17.97;100.00;101320.44;10582836;28;20390;-68
2023/10/14 09:55:15;;;;;;;10.20;3.35;;;;;;;18.01;100.00;101318.88;10581305;28;20035;-70
2023/10/14 10:00:16;;;;;;;5.38;2.60;;;;;;;19.41;100.00;101330.72;10581990;28;20044;-70
2023/10/14 10:05:26;;;;;;;8.35;3.88;;;;;;;19.25;100.00;101337.84;10582240;28;20462;-68
2023/10/14 10:10:28;;;;;;;2.88;2.33;;;;;;;19.94;100.00;101330.34;10580922;28;20024;-72
2023/10/14 10:15:29;;;;;;;7.78;2.80;;;;;;;20.55;100.00;101344.22;10581279;28;20129;-75
2023/10/14 10:20:31;;;;;;;5.88;2.15;;;;;;;19.97;100.00;101353.72;10584419;28;20088;-66
2023/10/14 10:25:51;;;;;;;2.50;2.30;;;;;;;19.55;100.00;101356.81;10522031;28;20379;-70
2023/10/14 10:30:52;;;;;;;7.05;3.20;;;;;;;19.17;100.00;101350.03;10599692;27;20044;-71
2023/10/14 10:35:57;;;;;;;4.30;2.70;;;;;;;19.66;100.00;101366.94;10565102;28;20482;-69
2023/10/14 10:41:30;;;;;;;5.43;2.55;;;;;;;19.66;100.00;101366.94;10581761;28;20089;-67
2023/10/14 10:46:53;;;;;;;10.60;2.00;;;;;;;18.50;100.00;101374.31;10536763;28;20051;-70
2023/10/14 10:52:13;;;;;;;2.95;2.53;;;;;;;17.47;100.00;101386.47;10579658;28;20081;-69
2023/10/14 10:57:13;;;;;;;4.97;3.13;;;;;;;18.60;100.00;101382.78;10581073;28;20350;-68
2023/10/14 11:02:18;;;;;;;8.60;2.83;;;;;;;18.45;98.04;101371.47;10533226;27;20051;-70
2023/10/14 11:07:22;;;;;;;2.47;1.98;;;;;;;19.10;100.00;101382.28;10582313;28;20102;-72
2023/10/14 11:12:23;;;;;;;3.00;2.58;;;;;;;19.22;100.00;101391.31;10580832;28;20116;-72
2023/10/14 11:17:26;;;;;;;3.70;2.58;;;;;;;20.02;100.00;101391.47;10581947;28;20116;-70
2023/10/14 11:22:27;;;;;;;4.20;2.05;;;;;;;19.63;93.00;101392.13;10566051;28;20035;-71
2023/10/14 11:27:30;;;;;;;2.55;1.98;;;;;;;19.35;100.00;101408.59;10581748;28;20035;-75
2023/10/14 11:32:30;;;;;;;6.40;2.50;;;;;;;19.34;100.00;101405.03;10580426;28;20124;-68
2023/10/14 11:37:36;;;;;;;6.78;2.58;;;;;;;19.39;100.00;101416.09;10579699;28;20044;-70
2023/10/14 11:42:37;;;;;;;3.13;2.03;;;;;;;18.25;100.00;101412.94;10579451;28;20039;-68
2023/10/14 11:47:41;;;;;;;2.72;2.22;;;;;;;18.96;90.83;101422.88;10577400;28;20027;-70
2023/10/14 11:52:42;;;;;;;9.07;2.33;;;;;;;17.88;100.00;101429.53;10578670;28;20047;-74
2023/10/14 11:57:43;;;;;;;9.40;2.53;;;;;;;18.08;100.00;101430.06;10579161;28;20034;-74
2023/10/14 12:02:45;;;;;;;4.72;2.38;;;;;;;18.13;86.51;101429.38;10578021;28;20046;-73
2023/10/14 12:07:47;;;;;;;5.85;2.78;;;;;;;16.79;100.00;101440.31;10578202;28;20061;-74
2023/10/14 12:12:52;;;;;;;5.82;1.92;;;;;;;16.27;100.00;101448.72;10578180;28;20040;-73
2023/10/14 12:17:53;;;;;;;3.90;2.33;;;;;;;17.70;100.00;101444.06;10578622;28;20474;-72
2023/10/14 12:22:53;;;;;;;2.67;2.42;;;;;;;18.84;81.66;101437.69;10577627;28;20028;-69
2023/10/14 12:27:53;;;;;;;5.28;2.53;;;;;;;18.74;96.29;101439.13;10579484;28;20081;-71
2023/10/14 12:32:54;;;;;;;3.58;2.33;;;;;;;18.18;100.00;101434.13;10589522;28;20035;-72
2023/10/14 12:37:58;;;;;;;4.07;2.55;;;;;;;18.31;89.28;101453.97;10586758;28;20103;-71
2023/10/14 12:43:01;;;;;;;17.23;2.72;;;;;;;17.89;100.00;101462.16;10587728;28;20083;-72
2023/10/14 12:48:11;;;;;;;3.63;2.08;;;;;;;18.17;86.97;101454.41;10587404;28;20051;-71
2023/10/14 12:53:12;;;;;;;2.97;2.13;;;;;;;17.26;97.65;101468.03;10586429;28;20173;-71
2023/10/14 12:58:15;;;;;;;3.63;2.10;;;;;;;17.29;98.37;101467.53;10583997;28;20039;-71
2023/10/14 13:03:17;;;;;;;2.90;2.20;;;;;;;17.36;100.00;101479.28;10567221;28;20020;-70
2023/10/14 13:08:19;;;;;;;2.72;1.83;;;;;;;17.06;98.52;101489.28;10601184;27;20138;-71
2023/10/14 13:13:20;;;;;;;6.00;2.13;;;;;;;16.26;93.99;101490.75;10584422;28;20047;-70
2023/10/14 13:18:24;;;;;;;5.57;3.00;;;;;;;16.99;100.00;101497.56;10601334;27;20116;-71
2023/10/14 13:23:25;;;;;;;6.22;2.92;;;;;;;16.85;83.74;101496.88;10583851;28;20158;-74
2023/10/14 13:28:25;;;;;;;6.57;2.20;;;;;;;16.76;72.83;101503.66;10584220;28;20034;-72
2023/10/14 13:33:26;;;;;;;8.85;2.75;;;;;;;15.49;88.23;101514.44;10583528;28;20056;-73
2023/10/14 13:38:26;;;;;;;5.85;2.33;;;;;;;15.21;100.00;101530.28;10584463;28;20031;-74
2023/10/14 13:43:27;;;;;;;6.32;2.45;;;;;;;15.46;95.61;101514.88;10582913;28;20520;-74
2023/10/14 13:48:29;;;;;;;6.90;3.65;;;;;;;15.38;95.05;101536.97;10583178;28;20080;-75
2023/10/14 13:53:32;;;;;;;2.47;2.03;;;;;;;14.94;91.90;101533.03;10566712;28;20083;-75
2023/10/14 13:58:34;;;;;;;12.35;3.45;;;;;;;15.80;97.19;101532.03;10548385;28;20028;-73
2023/10/14 14:03:38;;;;;;;2.63;2.42;;;;;;;16.32;100.00;101538.25;10582944;28;20395;-76
2023/10/14 14:08:38;;;;;;;2.80;1.70;;;;;;;15.28;100.00;101553.78;10583750;28;20047;-75
2023/10/14 14:13:42;;;;;;;2.67;1.83;;;;;;;14.55;100.00;101551.06;10583097;28;20118;-75
2023/10/14 14:18:43;;;;;;;4.85;2.75;;;;;;;14.26;100.00;101560.41;10583328;28;20066;-74
2023/10/14 14:23:43;;;;;;;4.95;2.13;;;;;;;13.79;100.00;101577.63;10582804;28;20411;-75
2023/10/14 14:28:44;;;;;;;3.03;2.38;;;;;;;13.60;100.00;101571.88;10581972;28;20040;-74
2023/10/14 14:33:46;;;;;;;7.40;2.25;;;;;;;13.24;96.06;101575.66;10540249;27;20051;-70
2023/10/14 14:38:46;;;;;;;4.40;2.42;;;;;;;13.34;98.86;101580.72;10580607;28;20057;-74
2023/10/14 14:43:47;;;;;;;4.93;1.75;;;;;;;13.02;100.00;101587.59;10582021;28;20188;-73
2023/10/14 14:48:50;;;;;;;10.52;3.17;;;;;;;12.85;98.29;101580.72;10596682;27;20031;-73
2023/10/14 14:53:54;;;;;;;6.80;2.05;;;;;;;13.17;100.00;101588.31;10581399;28;20055;-70
2023/10/14 14:58:54;;;;;;;4.00;2.35;;;;;;;13.13;100.00;101588.91;10581167;28;20028;-70
2023/10/14 15:03:55;;;;;;;8.40;2.92;;;;;;;13.26;100.00;101594.47;10580200;28;20432;-71
2023/10/14 15:08:56;;;;;;;6.40;3.13;;;;;;;13.09;100.00;101602.06;10577994;28;20040;-70
2023/10/14 15:13:56;;;;;;;3.67;2.38;;;;;;;12.75;100.00;101609.06;10580615;28;20034;-70
2023/10/14 15:18:58;;;;;;;4.32;2.38;;;;;;;12.54;100.00;101611.81;10580340;28;20473;-71
2023/10/14 15:24:00;;;;;;;15.45;2.35;;;;;;;12.41;100.00;101622.50;10578395;28;20039;-70
2023/10/14 15:29:04;;;;;;;5.85;2.10;;;;;;;12.40;100.00;101628.97;10579119;28;20454;-70
2023/10/14 15:34:05;;;;;;;8.57;2.67;;;;;;;12.06;100.00;101620.44;10579872;28;20383;-70
2023/10/14 15:39:05;;;;;;;2.22;1.42;;;;;;;12.13;100.00;101628.69;10578116;28;20039;-69
2023/10/14 15:44:06;;;;;;;3.38;2.55;;;;;;;12.14;100.00;101618.66;10580245;28;20035;-69
2023/10/14 15:49:09;;;;;;;6.72;3.22;;;;;;;11.99;100.00;101619.50;10579991;28;20036;-69
2023/10/14 15:54:09;;;;;;;5.38;2.42;;;;;;;11.99;100.00;101627.66;10579418;28;20040;-69
2023/10/14 15:59:10;;;;;;;4.68;2.47;;;;;;;12.22;100.00;101627.53;10577513;28;20391;-68
2023/10/14 16:04:11;;;;;;;2.72;2.22;;;;;;;12.28;100.00;101621.34;10581923;28;20032;-69
2023/10/14 16:09:12;;;;;;;5.50;3.03;;;;;;;12.52;100.00;101624.72;10587088;28;20460;-69
2023/10/14 16:14:13;;;;;;;13.75;3.53;;;;;;;12.49;100.00;101623.25;10587600;28;20051;-71
2023/10/14 16:19:17;;;;;;;3.78;2.75;;;;;;;12.56;100.00;101628.75;10586671;28;20036;-70
2023/10/14 16:24:18;;;;;;;7.13;2.70;;;;;;;12.42;100.00;101632.34;10586892;28;20036;-71
2023/10/14 16:29:18;;;;;;;5.95;2.97;;;;;;;12.54;100.00;101638.97;10602343;27;20027;-70
2023/10/14 16:34:25;;;;;;;4.43;3.22;;;;;;;12.28;100.00;101648.50;10586014;28;20066;-70
2023/10/14 16:39:26;;;;;;;4.82;2.45;;;;;;;11.91;100.00;101654.06;10586413;28;20458;-70
2023/10/14 16:44:28;;;;;;;3.45;2.38;;;;;;;11.63;100.00;101666.38;10585285;28;20483;-69
2023/10/14 16:49:30;;;;;;;8.32;2.50;;;;;;;11.40;100.00;101671.84;10601493;27;20036;-69
2023/10/14 16:54:30;;;;;;;7.93;3.38;;;;;;;11.47;100.00;101693.66;10567151;28;20115;-69
2023/10/14 16:59:31;;;;;;;13.10;3.92;;;;;;;11.39;100.00;101691.88;10585033;28;20039;-70
2023/10/14 17:04:31;;;;;;;9.90;4.47;;;;;;;11.28;100.00;101699.59;10567405;28;20525;-70
2023/10/14 17:09:32;;;;;;;7.05;3.80;;;;;;;11.21;100.00;101693.22;10583864;28;20038;-70
2023/10/14 17:14:32;;;;;;;11.20;3.38;;;;;;;11.18;100.00;101710.69;10583755;28;20099;-69
2023/10/14 17:19:33;;;;;;;9.00;3.10;;;;;;;11.14;100.00;101710.22;10584013;28;20028;-70
2023/10/14 17:24:34;;;;;;;8.73;2.67;;;;;;;11.30;100.00;101714.66;10585659;28;20038;-69
2023/10/14 17:29:35;;;;;;;14.40;2.83;;;;;;;11.54;100.00;101710.03;10583985;28;20024;-69
2023/10/14 17:34:35;;;;;;;5.07;3.60;;;;;;;11.70;100.00;101709.88;10583824;28;20141;-71
2023/10/14 17:39:36;;;;;;;13.45;3.50;;;;;;;11.81;100.00;101712.16;10583700;28;20048;-69
2023/10/14 17:44:37;;;;;;;7.03;2.88;;;;;;;11.75;100.00;101731.03;10584690;28;20340;-69
2023/10/14 17:49:37;;;;;;;6.35;3.15;;;;;;;11.47;100.00;101725.38;10584033;28;20032;-70
2023/10/14 17:54:37;;;;;;;4.82;3.75;;;;;;;11.30;100.00;101724.69;10600160;27;20394;-70
2023/10/14 17:59:38;;;;;;;3.63;2.03;;;;;;;11.12;100.00;101735.81;10583424;28;20059;-70
2023/10/14 18:04:41;;;;;;;2.47;2.03;;;;;;;11.01;100.00;101737.09;10581832;28;20084;-70
2023/10/14 18:09:42;;;;;;;2.53;2.17;;;;;;;10.85;100.00;101753.44;10581608;28;20035;-70
2023/10/14 18:14:45;;;;;;;11.27;3.58;;;;;;;10.77;100.00;101754.31;10582091;28;20031;-70
2023/10/14 18:19:45;;;;;;;4.85;2.83;;;;;;;10.72;100.00;101754.03;10582118;28;20062;-68
2023/10/14 18:24:46;;;;;;;8.02;2.60;;;;;;;10.58;100.00;101760.19;10587129;28;20031;-70
2023/10/14 18:29:46;;;;;;;9.48;3.45;;;;;;;10.55;100.00;101757.81;10588818;28;20371;-70
2023/10/14 18:34:47;;;;;;;3.78;3.00;;;;;;;10.47;100.00;101751.44;10584124;28;20516;-69
2023/10/14 18:39:47;;;;;;;11.60;3.22;;;;;;;10.43;100.00;101755.53;10583456;28;20063;-71
2023/10/14 18:44:47;;;;;;;5.55;3.45;;;;;;;10.33;100.00;101762.97;10584508;28;20039;-69
2023/10/14 18:49:48;;;;;;;6.68;2.33;;;;;;;10.38;100.00;101762.47;10562425;28;20078;-70
2023/10/14 18:54:49;;;;;;;13.82;2.92;;;;;;;10.33;100.00;101765.69;10581020;28;20035;-68
2023/10/14 18:59:50;;;;;;;7.50;2.05;;;;;;;10.20;100.00;101768.06;10562745;28;20489;-69
2023/10/14 19:04:51;;;;;;;3.95;3.03;;;;;;;10.11;100.00;101756.41;10562311;28;20067;-68
2023/10/14 19:09:51;;;;;;;6.45;3.25;;;;;;;10.33;100.00;101765.69;10580115;28;20379;-69
2023/10/14 19:14:52;;;;;;;8.13;2.53;;;;;;;10.42;100.00;101761.94;10579078;28;20028;-69
2023/10/14 19:19:52;;;;;;;15.60;3.80;;;;;;;10.29;100.00;101768.94;10579680;28;20031;-69
2023/10/14 19:24:53;;;;;;;8.65;2.58;;;;;;;10.12;100.00;101763.53;10579424;28;20039;-69
2023/10/14 19:29:53;;;;;;;6.32;2.13;;;;;;;10.22;100.00;101769.59;10579930;28;20028;-70
2023/10/14 19:34:54;;;;;;;12.77;3.65;;;;;;;10.21;100.00;101767.03;10580294;28;20213;-69
2023/10/14 19:39:54;;;;;;;10.95;4.10;;;;;;;10.26;100.00;101764.72;10579557;28;20563;-69
2023/10/14 19:44:55;;;;;;;6.97;3.10;;;;;;;10.31;100.00;101773.16;10578418;28;20107;-69
2023/10/14 19:49:55;;;;;;;8.32;2.60;;;;;;;10.38;100.00;101768.72;10561217;28;20481;-69
2023/10/14 19:54:56;;;;;;;11.10;3.13;;;;;;;10.26;100.00;101767.41;10578434;28;20089;-69
2023/10/14 19:59:56;;;;;;;3.63;3.05;;;;;;;10.15;100.00;101781.31;10579302;28;20035;-69
2023/10/14 20:04:57;;;;;;;5.68;2.97;;;;;;;10.05;100.00;101769.81;10579469;28;20043;-69
2023/10/14 20:09:58;;;;;;;6.30;2.45;;;;;;;10.02;100.00;101776.44;10578655;28;20445;-69
2023/10/14 20:14:58;;;;;;;4.05;1.80;;;;;;;10.08;100.00;101786.53;10577502;28;20059;-69
2023/10/14 20:19:59;;;;;;;5.20;2.80;;;;;;;10.11;100.00;101788.06;10578361;28;20038;-69
2023/10/14 20:25:00;;;;;;;9.05;2.92;;;;;;;10.16;100.00;101780.28;10578500;28;20048;-70
2023/10/14 20:30:00;;;;;;;12.15;2.63;;;;;;;10.26;100.00;101775.53;10594083;28;20031;-69
2023/10/14 20:35:01;;;;;;;5.50;2.92;;;;;;;10.38;100.00;101773.31;10577516;28;20051;-68
2023/10/14 20:40:05;;;;;;;4.40;1.10;;;;;;;10.38;100.00;101779.56;10577249;28;20443;-69
2023/10/14 20:45:07;;;;;;;8.95;3.63;;;;;;;10.33;100.00;101781.94;10578211;28;20046;-70
2023/10/14 20:50:17;;;;;;;4.90;2.58;;;;;;;10.34;100.00;101771.94;10579288;28;20067;-70
2023/10/14 20:55:20;;;;;;;14.45;3.20;;;;;;;10.31;100.00;101778.56;10586555;27;20028;-71
2023/10/14 21:00:26;;;;;;;4.00;2.22;;;;;;;10.30;100.00;101763.34;10585066;28;20067;-69
2023/10/14 21:05:26;;;;;;;7.22;2.05;;;;;;;10.47;100.00;101773.09;10584650;28;20035;-71
2023/10/14 21:10:27;;;;;;;2.17;1.85;;;;;;;10.51;100.00;101770.03;10584421;28;20028;-68
2023/10/14 21:15:27;;;;;;;10.15;2.28;;;;;;;10.48;100.00;101774.78;10583779;28;20066;-68
2023/10/14 21:20:28;;;;;;;2.63;1.67;;;;;;;10.33;100.00;101771.09;10584076;27;20097;-68
2023/10/14 21:25:28;;;;;;;2.65;1.70;;;;;;;10.35;100.00;101762.81;10583397;28;20135;-68
2023/10/14 21:30:30;;;;;;;5.30;2.33;;;;;;;10.40;100.00;101766.69;10582243;28;20031;-68
2023/10/14 21:35:34;;;;;;;4.25;2.10;;;;;;;10.32;100.00;101763.16;10583288;28;20489;-68
2023/10/14 21:40:34;;;;;;;6.60;2.42;;;;;;;10.39;100.00;101759.56;10585752;28;20589;-70
2023/10/14 21:45:35;;;;;;;2.22;1.83;;;;;;;10.44;100.00;101757.19;10586472;28;20039;-69
2023/10/14 21:50:35;;;;;;;5.07;2.80;;;;;;;10.38;100.00;101749.78;10582504;28;20032;-69
2023/10/14 21:55:38;;;;;;;4.30;2.28;;;;;;;10.33;100.00;101737.78;10599203;27;20103;-69
2023/10/14 22:00:48;;;;;;;7.03;2.85;;;;;;;10.37;100.00;101734.56;10581301;27;20047;-69
2023/10/14 22:05:53;;;;;;;7.15;2.95;;;;;;;10.65;100.00;101736.78;10582963;28;20068;-69
2023/10/14 22:10:53;;;;;;;6.82;1.80;;;;;;;10.72;100.00;101754.03;10581010;28;20040;-70
2023/10/14 22:15:54;;;;;;;3.60;2.53;;;;;;;9.92;100.00;101773.03;10583478;28;20035;-70
2023/10/14 22:20:54;;;;;;;6.50;2.05;;;;;;;8.74;100.00;101751.72;10581813;28;20119;-70
2023/10/14 22:25:56;;;;;;;8.32;2.55;;;;;;;8.60;100.00;101752.34;10581474;28;20105;-70
2023/10/14 22:30:59;;;;;;;7.80;1.77;;;;;;;8.56;100.00;101754.53;10580541;28;20070;-70
2023/10/14 22:36:01;;;;;;;0.85;0.85;;;;;;;8.56;100.00;101751.81;10581110;28;20096;-70
2023/10/14 22:41:01;;;;;;;0.93;0.93;;;;;;;8.76;100.00;101759.66;10547178;28;20030;-69
2023/10/14 22:46:01;;;;;;;1.00;1.00;;;;;;;8.98;100.00;101764.41;10582057;28;20046;-69
2023/10/14 22:51:02;;;;;;;0.63;0.63;;;;;;;9.00;100.00;101770.50;10580385;28;20031;-69
2023/10/14 22:56:05;;;;;;;0.40;0.40;;;;;;;8.99;100.00;101779.59;10579329;28;20505;-69
2023/10/14 23:01:06;;;;;;;0.40;0.40;;;;;;;9.02;100.00;101784.69;10580327;28;20134;-69
2023/10/14 23:06:06;;;;;;;0.40;0.40;;;;;;;9.11;100.00;101785.56;10579473;28;20119;-69
2023/10/14 23:11:07;;;;;;;2.05;1.95;;;;;;;9.34;100.00;101785.75;10578798;28;20032;-69
2023/10/14 23:16:07;;;;;;;0.50;0.50;;;;;;;9.45;100.00;101790.00;10580453;28;20032;-69
2023/10/14 23:21:09;;;;;;;0.40;0.40;;;;;;;9.50;100.00;101780.34;10580046;28;20088;-70
2023/10/14 23:26:10;;;;;;;0.30;0.30;;;;;;;9.59;100.00;101775.78;10578863;28;20031;-69
2023/10/14 23:31:10;;;;;;;0.40;0.40;;;;;;;9.71;100.00;101763.63;10580349;28;20042;-69